sensor_id;sensor_type;location;lat;lon;timestamp;P1;durP1;ratioP1;P2;durP2;ratioP2
18340;SDS011;9296;48.084;16.352;2023-07-09T00:01:13;7.15;;;5.30;;
18340;SDS011;9296;48.084;16.352;2023-07-09T00:03:43;7.55;;;5.20;;
18340;SDS011;9296;48.084;16.352;2023-07-09T00:06:11;5.93;;;5.32;;
18340;SDS011;9296;48.084;16.352;2023-07-09T00:08:39;9.45;;;5.88;;
18340;SDS011;9296;48.084;16.352;2023-07-09T00:14:12;7.13;;;5.57;;
18340;SDS011;9296;48.084;16.352;2023-07-09T00:16:40;7.68;;;5.80;;
18340;SDS011;9296;48.084;16.352;2023-07-09T00:19:11;6.93;;;5.70;;
18340;SDS011;9296;48.084;16.352;2023-07-09T00:21:41;7.70;;;5.57;;
18340;SDS011;9296;48.084;16.352;2023-07-09T00:24:10;6.10;;;5.50;;
18340;SDS011;9296;48.084;16.352;2023-07-09T00:29:40;8.48;;;6.05;;
18340;SDS011;9296;48.084;16.352;2023-07-09T00:32:10;6.93;;;5.80;;
18340;SDS011;9296;48.084;16.352;2023-07-09T00:34:41;6.40;;;5.40;;
18340;SDS011;9296;48.084;16.352;2023-07-09T00:37:14;7.22;;;6.00;;
18340;SDS011;9296;48.084;16.352;2023-07-09T00:42:45;10.00;;;5.65;;
18340;SDS011;9296;48.084;16.352;2023-07-09T00:45:17;6.50;;;5.90;;
18340;SDS011;9296;48.084;16.352;2023-07-09T00:47:46;7.18;;;5.40;;
18340;SDS011;9296;48.084;16.352;2023-07-09T00:50:19;7.25;;;5.55;;
18340;SDS011;9296;48.084;16.352;2023-07-09T00:52:49;8.23;;;5.50;;
18340;SDS011;9296;48.084;16.352;2023-07-09T01:01:18;5.68;;;5.18;;
18340;SDS011;9296;48.084;16.352;2023-07-09T01:03:46;6.40;;;5.28;;
18340;SDS011;9296;48.084;16.352;2023-07-09T01:06:15;7.65;;;5.50;;
18340;SDS011;9296;48.084;16.352;2023-07-09T01:08:44;7.25;;;5.95;;
18340;SDS011;9296;48.084;16.352;2023-07-09T01:14:21;6.28;;;5.60;;
18340;SDS011;9296;48.084;16.352;2023-07-09T01:16:52;7.45;;;5.30;;
18340;SDS011;9296;48.084;16.352;2023-07-09T01:19:22;6.07;;;5.10;;
18340;SDS011;9296;48.084;16.352;2023-07-09T01:21:51;6.15;;;5.38;;
18340;SDS011;9296;48.084;16.352;2023-07-09T01:30:23;7.97;;;5.65;;
18340;SDS011;9296;48.084;16.352;2023-07-09T01:32:51;8.05;;;5.80;;
18340;SDS011;9296;48.084;16.352;2023-07-09T01:35:20;7.68;;;5.78;;
18340;SDS011;9296;48.084;16.352;2023-07-09T01:37:49;6.68;;;5.85;;
18340;SDS011;9296;48.084;16.352;2023-07-09T01:40:17;7.50;;;5.22;;
18340;SDS011;9296;48.084;16.352;2023-07-09T01:42:45;8.38;;;5.53;;
18340;SDS011;9296;48.084;16.352;2023-07-09T01:45:12;6.95;;;5.40;;
18340;SDS011;9296;48.084;16.352;2023-07-09T01:47:40;7.55;;;5.47;;
18340;SDS011;9296;48.084;16.352;2023-07-09T01:50:09;7.78;;;5.43;;
18340;SDS011;9296;48.084;16.352;2023-07-09T01:52:37;6.90;;;5.63;;
18340;SDS011;9296;48.084;16.352;2023-07-09T01:55:09;8.20;;;5.90;;
18340;SDS011;9296;48.084;16.352;2023-07-09T01:57:37;6.65;;;5.68;;
18340;SDS011;9296;48.084;16.352;2023-07-09T02:00:06;7.80;;;5.60;;
18340;SDS011;9296;48.084;16.352;2023-07-09T02:02:35;6.88;;;5.63;;
18340;SDS011;9296;48.084;16.352;2023-07-09T02:05:04;7.45;;;5.82;;
18340;SDS011;9296;48.084;16.352;2023-07-09T02:07:31;8.35;;;5.65;;
18340;SDS011;9296;48.084;16.352;2023-07-09T02:10:18;7.15;;;5.60;;
18340;SDS011;9296;48.084;16.352;2023-07-09T02:12:46;6.80;;;5.60;;
18340;SDS011;9296;48.084;16.352;2023-07-09T02:15:14;8.68;;;6.57;;
18340;SDS011;9296;48.084;16.352;2023-07-09T02:17:41;6.93;;;5.47;;
18340;SDS011;9296;48.084;16.352;2023-07-09T02:20:09;6.80;;;5.65;;
18340;SDS011;9296;48.084;16.352;2023-07-09T02:22:38;9.27;;;5.85;;
18340;SDS011;9296;48.084;16.352;2023-07-09T02:28:29;7.05;;;5.88;;
18340;SDS011;9296;48.084;16.352;2023-07-09T02:30:56;6.78;;;5.45;;
18340;SDS011;9296;48.084;16.352;2023-07-09T02:33:23;7.07;;;5.82;;
18340;SDS011;9296;48.084;16.352;2023-07-09T02:35:51;10.98;;;6.00;;
18340;SDS011;9296;48.084;16.352;2023-07-09T02:38:18;8.05;;;5.55;;
18340;SDS011;9296;48.084;16.352;2023-07-09T02:43:50;7.88;;;6.20;;
18340;SDS011;9296;48.084;16.352;2023-07-09T02:46:17;7.47;;;6.13;;
18340;SDS011;9296;48.084;16.352;2023-07-09T02:48:45;7.45;;;6.43;;
18340;SDS011;9296;48.084;16.352;2023-07-09T02:51:12;8.35;;;5.80;;
18340;SDS011;9296;48.084;16.352;2023-07-09T02:53:39;9.00;;;6.55;;
18340;SDS011;9296;48.084;16.352;2023-07-09T02:56:06;8.50;;;6.57;;
18340;SDS011;9296;48.084;16.352;2023-07-09T02:58:33;8.90;;;6.90;;
18340;SDS011;9296;48.084;16.352;2023-07-09T03:01:02;8.32;;;6.82;;
18340;SDS011;9296;48.084;16.352;2023-07-09T03:03:30;8.70;;;7.38;;
18340;SDS011;9296;48.084;16.352;2023-07-09T03:05:57;10.27;;;6.78;;
18340;SDS011;9296;48.084;16.352;2023-07-09T03:08:25;9.65;;;6.68;;
18340;SDS011;9296;48.084;16.352;2023-07-09T03:10:52;11.38;;;7.10;;
18340;SDS011;9296;48.084;16.352;2023-07-09T03:13:19;12.43;;;7.15;;
18340;SDS011;9296;48.084;16.352;2023-07-09T03:15:53;7.80;;;6.85;;
18340;SDS011;9296;48.084;16.352;2023-07-09T03:18:22;9.30;;;7.28;;
18340;SDS011;9296;48.084;16.352;2023-07-09T03:20:50;9.52;;;6.85;;
18340;SDS011;9296;48.084;16.352;2023-07-09T03:23:17;8.70;;;6.97;;
18340;SDS011;9296;48.084;16.352;2023-07-09T03:25:45;11.68;;;7.28;;
18340;SDS011;9296;48.084;16.352;2023-07-09T03:28:12;8.77;;;7.43;;
18340;SDS011;9296;48.084;16.352;2023-07-09T03:30:40;8.10;;;7.05;;
18340;SDS011;9296;48.084;16.352;2023-07-09T03:33:08;10.68;;;7.43;;
18340;SDS011;9296;48.084;16.352;2023-07-09T03:35:36;9.65;;;7.05;;
18340;SDS011;9296;48.084;16.352;2023-07-09T03:38:04;8.70;;;6.90;;
18340;SDS011;9296;48.084;16.352;2023-07-09T03:46:38;7.75;;;5.95;;
18340;SDS011;9296;48.084;16.352;2023-07-09T03:49:06;9.13;;;6.25;;
18340;SDS011;9296;48.084;16.352;2023-07-09T03:51:34;8.10;;;6.45;;
18340;SDS011;9296;48.084;16.352;2023-07-09T03:54:02;8.80;;;6.75;;
18340;SDS011;9296;48.084;16.352;2023-07-09T03:59:32;8.10;;;7.20;;
18340;SDS011;9296;48.084;16.352;2023-07-09T04:01:59;8.70;;;5.95;;
18340;SDS011;9296;48.084;16.352;2023-07-09T04:04:28;8.75;;;6.55;;
18340;SDS011;9296;48.084;16.352;2023-07-09T04:06:56;9.40;;;6.50;;
18340;SDS011;9296;48.084;16.352;2023-07-09T04:09:23;9.95;;;7.25;;
18340;SDS011;9296;48.084;16.352;2023-07-09T04:12:09;8.85;;;7.32;;
18340;SDS011;9296;48.084;16.352;2023-07-09T04:14:36;8.35;;;7.35;;
18340;SDS011;9296;48.084;16.352;2023-07-09T04:17:05;11.45;;;7.88;;
18340;SDS011;9296;48.084;16.352;2023-07-09T04:19:32;10.18;;;7.38;;
18340;SDS011;9296;48.084;16.352;2023-07-09T04:22:01;9.27;;;8.18;;
18340;SDS011;9296;48.084;16.352;2023-07-09T04:24:29;9.23;;;8.10;;
18340;SDS011;9296;48.084;16.352;2023-07-09T04:30:00;8.57;;;7.72;;
18340;SDS011;9296;48.084;16.352;2023-07-09T04:32:30;8.50;;;7.60;;
18340;SDS011;9296;48.084;16.352;2023-07-09T04:34:57;9.70;;;8.55;;
18340;SDS011;9296;48.084;16.352;2023-07-09T04:37:26;10.27;;;7.78;;
18340;SDS011;9296;48.084;16.352;2023-07-09T04:45:59;8.30;;;7.50;;
18340;SDS011;9296;48.084;16.352;2023-07-09T04:48:27;11.18;;;7.40;;
18340;SDS011;9296;48.084;16.352;2023-07-09T04:50:54;11.10;;;8.27;;
18340;SDS011;9296;48.084;16.352;2023-07-09T04:53:22;9.05;;;8.13;;
18340;SDS011;9296;48.084;16.352;2023-07-09T04:56:08;10.93;;;8.23;;
18340;SDS011;9296;48.084;16.352;2023-07-09T04:58:36;9.93;;;7.95;;
18340;SDS011;9296;48.084;16.352;2023-07-09T05:01:03;10.90;;;8.15;;
18340;SDS011;9296;48.084;16.352;2023-07-09T05:03:30;10.75;;;8.10;;
18340;SDS011;9296;48.084;16.352;2023-07-09T05:05:58;9.93;;;8.52;;
18340;SDS011;9296;48.084;16.352;2023-07-09T05:08:26;9.05;;;8.07;;
18340;SDS011;9296;48.084;16.352;2023-07-09T05:10:53;9.27;;;7.97;;
18340;SDS011;9296;48.084;16.352;2023-07-09T05:13:21;9.30;;;7.93;;
18340;SDS011;9296;48.084;16.352;2023-07-09T05:15:48;8.77;;;7.88;;
18340;SDS011;9296;48.084;16.352;2023-07-09T05:18:16;10.75;;;7.97;;
18340;SDS011;9296;48.084;16.352;2023-07-09T05:20:43;9.70;;;7.35;;
18340;SDS011;9296;48.084;16.352;2023-07-09T05:23:11;9.98;;;6.90;;
18340;SDS011;9296;48.084;16.352;2023-07-09T05:25:39;10.05;;;7.38;;
18340;SDS011;9296;48.084;16.352;2023-07-09T05:28:07;8.73;;;7.50;;
18340;SDS011;9296;48.084;16.352;2023-07-09T05:30:34;10.80;;;7.97;;
18340;SDS011;9296;48.084;16.352;2023-07-09T05:33:01;9.88;;;8.18;;
18340;SDS011;9296;48.084;16.352;2023-07-09T05:35:28;8.52;;;6.82;;
18340;SDS011;9296;48.084;16.352;2023-07-09T05:37:55;8.02;;;7.10;;
18340;SDS011;9296;48.084;16.352;2023-07-09T05:46:34;8.18;;;6.80;;
18340;SDS011;9296;48.084;16.352;2023-07-09T05:49:02;10.20;;;7.05;;
18340;SDS011;9296;48.084;16.352;2023-07-09T05:51:29;8.45;;;6.55;;
18340;SDS011;9296;48.084;16.352;2023-07-09T05:53:57;7.90;;;6.10;;
18340;SDS011;9296;48.084;16.352;2023-07-09T05:59:27;8.05;;;6.20;;
18340;SDS011;9296;48.084;16.352;2023-07-09T06:01:56;7.72;;;6.03;;
18340;SDS011;9296;48.084;16.352;2023-07-09T06:04:25;7.68;;;6.10;;
18340;SDS011;9296;48.084;16.352;2023-07-09T06:06:52;6.75;;;6.05;;
18340;SDS011;9296;48.084;16.352;2023-07-09T06:09:20;7.57;;;5.90;;
18340;SDS011;9296;48.084;16.352;2023-07-09T06:14:50;8.68;;;5.78;;
18340;SDS011;9296;48.084;16.352;2023-07-09T06:17:19;8.88;;;6.20;;
18340;SDS011;9296;48.084;16.352;2023-07-09T06:19:46;6.80;;;6.07;;
18340;SDS011;9296;48.084;16.352;2023-07-09T06:22:14;12.32;;;6.07;;
18340;SDS011;9296;48.084;16.352;2023-07-09T06:24:41;8.77;;;6.07;;
18340;SDS011;9296;48.084;16.352;2023-07-09T06:27:08;8.52;;;5.95;;
18340;SDS011;9296;48.084;16.352;2023-07-09T06:29:36;8.05;;;5.78;;
18340;SDS011;9296;48.084;16.352;2023-07-09T06:32:03;7.35;;;5.80;;
18340;SDS011;9296;48.084;16.352;2023-07-09T06:34:32;6.97;;;5.60;;
18340;SDS011;9296;48.084;16.352;2023-07-09T06:36:59;7.53;;;5.68;;
18340;SDS011;9296;48.084;16.352;2023-07-09T06:39:26;9.13;;;6.18;;
18340;SDS011;9296;48.084;16.352;2023-07-09T06:42:12;8.07;;;6.20;;
18340;SDS011;9296;48.084;16.352;2023-07-09T06:44:40;7.30;;;5.72;;
18340;SDS011;9296;48.084;16.352;2023-07-09T06:47:07;7.00;;;5.63;;
18340;SDS011;9296;48.084;16.352;2023-07-09T06:49:35;6.88;;;5.60;;
18340;SDS011;9296;48.084;16.352;2023-07-09T06:52:03;7.65;;;5.63;;
18340;SDS011;9296;48.084;16.352;2023-07-09T06:54:30;7.03;;;5.50;;
18340;SDS011;9296;48.084;16.352;2023-07-09T06:56:57;5.93;;;5.30;;
18340;SDS011;9296;48.084;16.352;2023-07-09T06:59:25;7.78;;;5.38;;
18340;SDS011;9296;48.084;16.352;2023-07-09T07:01:52;6.13;;;5.53;;
18340;SDS011;9296;48.084;16.352;2023-07-09T07:04:19;6.30;;;5.20;;
18340;SDS011;9296;48.084;16.352;2023-07-09T07:06:48;6.90;;;5.25;;
18340;SDS011;9296;48.084;16.352;2023-07-09T07:09:15;6.63;;;5.30;;
18340;SDS011;9296;48.084;16.352;2023-07-09T07:14:49;6.93;;;5.20;;
18340;SDS011;9296;48.084;16.352;2023-07-09T07:17:16;6.55;;;5.50;;
18340;SDS011;9296;48.084;16.352;2023-07-09T07:19:44;6.47;;;5.60;;
18340;SDS011;9296;48.084;16.352;2023-07-09T07:22:12;8.75;;;5.88;;
18340;SDS011;9296;48.084;16.352;2023-07-09T07:24:40;7.97;;;5.38;;
18340;SDS011;9296;48.084;16.352;2023-07-09T07:27:08;13.52;;;5.80;;
18340;SDS011;9296;48.084;16.352;2023-07-09T07:29:35;6.70;;;5.20;;
18340;SDS011;9296;48.084;16.352;2023-07-09T07:32:02;6.35;;;5.47;;
18340;SDS011;9296;48.084;16.352;2023-07-09T07:34:30;5.70;;;5.15;;
18340;SDS011;9296;48.084;16.352;2023-07-09T07:37:00;7.88;;;5.13;;
18340;SDS011;9296;48.084;16.352;2023-07-09T07:39:29;6.93;;;5.43;;
18340;SDS011;9296;48.084;16.352;2023-07-09T07:41:56;6.20;;;5.60;;
18340;SDS011;9296;48.084;16.352;2023-07-09T07:44:23;8.13;;;5.32;;
18340;SDS011;9296;48.084;16.352;2023-07-09T07:46:51;8.35;;;5.72;;
18340;SDS011;9296;48.084;16.352;2023-07-09T07:49:18;6.40;;;5.80;;
18340;SDS011;9296;48.084;16.352;2023-07-09T07:51:45;5.82;;;5.15;;
18340;SDS011;9296;48.084;16.352;2023-07-09T07:54:13;6.72;;;5.25;;
18340;SDS011;9296;48.084;16.352;2023-07-09T07:56:42;7.50;;;5.30;;
18340;SDS011;9296;48.084;16.352;2023-07-09T07:59:09;6.68;;;5.60;;
18340;SDS011;9296;48.084;16.352;2023-07-09T08:01:36;7.47;;;5.28;;
18340;SDS011;9296;48.084;16.352;2023-07-09T08:04:03;7.85;;;5.28;;
18340;SDS011;9296;48.084;16.352;2023-07-09T08:06:31;6.68;;;5.65;;
18340;SDS011;9296;48.084;16.352;2023-07-09T08:08:58;5.93;;;5.30;;
18340;SDS011;9296;48.084;16.352;2023-07-09T08:17:34;8.57;;;5.80;;
18340;SDS011;9296;48.084;16.352;2023-07-09T08:20:02;6.25;;;5.32;;
18340;SDS011;9296;48.084;16.352;2023-07-09T08:22:29;8.25;;;5.63;;
18340;SDS011;9296;48.084;16.352;2023-07-09T08:24:56;6.38;;;5.40;;
18340;SDS011;9296;48.084;16.352;2023-07-09T08:27:23;7.30;;;5.60;;
18340;SDS011;9296;48.084;16.352;2023-07-09T08:29:51;10.63;;;5.57;;
18340;SDS011;9296;48.084;16.352;2023-07-09T08:32:18;6.82;;;5.00;;
18340;SDS011;9296;48.084;16.352;2023-07-09T08:34:47;6.30;;;5.10;;
18340;SDS011;9296;48.084;16.352;2023-07-09T08:37:14;6.13;;;5.43;;
18340;SDS011;9296;48.084;16.352;2023-07-09T08:39:41;6.47;;;5.50;;
18340;SDS011;9296;48.084;16.352;2023-07-09T08:45:15;7.72;;;5.60;;
18340;SDS011;9296;48.084;16.352;2023-07-09T08:47:47;7.78;;;5.18;;
18340;SDS011;9296;48.084;16.352;2023-07-09T08:50:21;8.73;;;5.30;;
18340;SDS011;9296;48.084;16.352;2023-07-09T08:52:50;6.18;;;5.25;;
18340;SDS011;9296;48.084;16.352;2023-07-09T08:55:18;6.07;;;5.47;;
18340;SDS011;9296;48.084;16.352;2023-07-09T09:00:51;7.43;;;5.70;;
18340;SDS011;9296;48.084;16.352;2023-07-09T09:03:23;9.57;;;5.55;;
18340;SDS011;9296;48.084;16.352;2023-07-09T09:05:55;7.82;;;4.90;;
18340;SDS011;9296;48.084;16.352;2023-07-09T09:08:26;7.60;;;5.82;;
18340;SDS011;9296;48.084;16.352;2023-07-09T09:14:01;7.30;;;5.65;;
18340;SDS011;9296;48.084;16.352;2023-07-09T09:16:30;6.20;;;5.22;;
18340;SDS011;9296;48.084;16.352;2023-07-09T09:18:58;5.95;;;5.35;;
18340;SDS011;9296;48.084;16.352;2023-07-09T09:21:28;8.80;;;5.25;;
18340;SDS011;9296;48.084;16.352;2023-07-09T09:23:58;5.68;;;5.18;;
18340;SDS011;9296;48.084;16.352;2023-07-09T09:29:15;5.97;;;5.47;;
18340;SDS011;9296;48.084;16.352;2023-07-09T09:31:43;5.75;;;5.13;;
18340;SDS011;9296;48.084;16.352;2023-07-09T09:34:18;5.53;;;4.80;;
18340;SDS011;9296;48.084;16.352;2023-07-09T09:36:47;6.43;;;5.82;;
18340;SDS011;9296;48.084;16.352;2023-07-09T09:39:15;7.78;;;5.07;;
18340;SDS011;9296;48.084;16.352;2023-07-09T09:47:48;6.75;;;5.68;;
18340;SDS011;9296;48.084;16.352;2023-07-09T09:50:16;6.80;;;5.57;;
18340;SDS011;9296;48.084;16.352;2023-07-09T09:52:45;7.75;;;4.97;;
18340;SDS011;9296;48.084;16.352;2023-07-09T09:55:12;5.25;;;4.80;;
18340;SDS011;9296;48.084;16.352;2023-07-09T10:00:47;5.53;;;4.28;;
18340;SDS011;9296;48.084;16.352;2023-07-09T10:03:15;5.10;;;4.65;;
18340;SDS011;9296;48.084;16.352;2023-07-09T10:05:43;4.75;;;4.35;;
18340;SDS011;9296;48.084;16.352;2023-07-09T10:08:13;4.78;;;4.32;;
18340;SDS011;9296;48.084;16.352;2023-07-09T10:10:42;5.07;;;4.65;;
18340;SDS011;9296;48.084;16.352;2023-07-09T10:13:13;4.97;;;4.47;;
18340;SDS011;9296;48.084;16.352;2023-07-09T10:15:43;4.75;;;4.20;;
18340;SDS011;9296;48.084;16.352;2023-07-09T10:18:14;5.15;;;4.30;;
18340;SDS011;9296;48.084;16.352;2023-07-09T10:20:45;5.53;;;4.78;;
18340;SDS011;9296;48.084;16.352;2023-07-09T10:23:18;5.20;;;4.70;;
18340;SDS011;9296;48.084;16.352;2023-07-09T10:25:51;5.55;;;4.32;;
18340;SDS011;9296;48.084;16.352;2023-07-09T10:28:23;4.55;;;4.15;;
18340;SDS011;9296;48.084;16.352;2023-07-09T10:30:56;5.35;;;4.38;;
18340;SDS011;9296;48.084;16.352;2023-07-09T10:33:27;4.97;;;4.50;;
18340;SDS011;9296;48.084;16.352;2023-07-09T10:36:00;6.53;;;4.53;;
18340;SDS011;9296;48.084;16.352;2023-07-09T10:38:34;11.40;;;10.35;;
18340;SDS011;9296;48.084;16.352;2023-07-09T10:41:14;9.20;;;5.75;;
18340;SDS011;9296;48.084;16.352;2023-07-09T10:43:43;7.85;;;4.80;;
18340;SDS011;9296;48.084;16.352;2023-07-09T10:46:11;4.40;;;4.00;;
18340;SDS011;9296;48.084;16.352;2023-07-09T10:48:40;5.25;;;4.18;;
18340;SDS011;9296;48.084;16.352;2023-07-09T10:51:10;6.32;;;4.50;;
18340;SDS011;9296;48.084;16.352;2023-07-09T10:53:43;4.70;;;4.28;;
18340;SDS011;9296;48.084;16.352;2023-07-09T10:56:19;5.07;;;4.57;;
18340;SDS011;9296;48.084;16.352;2023-07-09T10:58:50;5.60;;;4.88;;
18340;SDS011;9296;48.084;16.352;2023-07-09T11:01:34;5.78;;;4.47;;
18340;SDS011;9296;48.084;16.352;2023-07-09T11:04:04;5.25;;;4.53;;
18340;SDS011;9296;48.084;16.352;2023-07-09T11:06:34;5.10;;;4.60;;
18340;SDS011;9296;48.084;16.352;2023-07-09T11:09:05;6.75;;;5.13;;
18340;SDS011;9296;48.084;16.352;2023-07-09T11:17:51;5.10;;;4.65;;
18340;SDS011;9296;48.084;16.352;2023-07-09T11:20:19;5.38;;;4.47;;
18340;SDS011;9296;48.084;16.352;2023-07-09T11:22:52;5.53;;;4.97;;
18340;SDS011;9296;48.084;16.352;2023-07-09T11:25:29;7.63;;;4.47;;
18340;SDS011;9296;48.084;16.352;2023-07-09T11:31:04;5.82;;;5.15;;
18340;SDS011;9296;48.084;16.352;2023-07-09T11:33:32;4.47;;;4.07;;
18340;SDS011;9296;48.084;16.352;2023-07-09T11:36:06;5.00;;;4.20;;
18340;SDS011;9296;48.084;16.352;2023-07-09T11:38:38;4.85;;;4.43;;
18340;SDS011;9296;48.084;16.352;2023-07-09T11:44:10;6.07;;;4.60;;
18340;SDS011;9296;48.084;16.352;2023-07-09T11:46:42;5.45;;;4.90;;
18340;SDS011;9296;48.084;16.352;2023-07-09T11:49:11;5.85;;;5.10;;
18340;SDS011;9296;48.084;16.352;2023-07-09T11:51:40;8.90;;;4.85;;
18340;SDS011;9296;48.084;16.352;2023-07-09T11:54:10;5.43;;;4.93;;
18340;SDS011;9296;48.084;16.352;2023-07-09T11:56:38;5.40;;;4.30;;
18340;SDS011;9296;48.084;16.352;2023-07-09T11:59:13;4.75;;;4.25;;
18340;SDS011;9296;48.084;16.352;2023-07-09T12:01:42;7.47;;;5.00;;
18340;SDS011;9296;48.084;16.352;2023-07-09T12:04:12;5.45;;;4.72;;
18340;SDS011;9296;48.084;16.352;2023-07-09T12:06:40;5.93;;;4.32;;
18340;SDS011;9296;48.084;16.352;2023-07-09T12:09:08;5.93;;;4.10;;
18340;SDS011;9296;48.084;16.352;2023-07-09T12:11:36;7.10;;;4.30;;
18340;SDS011;9296;48.084;16.352;2023-07-09T12:14:11;4.93;;;4.45;;
18340;SDS011;9296;48.084;16.352;2023-07-09T12:16:39;4.82;;;4.13;;
18340;SDS011;9296;48.084;16.352;2023-07-09T12:19:07;5.22;;;4.05;;
18340;SDS011;9296;48.084;16.352;2023-07-09T12:21:42;4.15;;;3.58;;
18340;SDS011;9296;48.084;16.352;2023-07-09T12:24:15;4.47;;;3.92;;
18340;SDS011;9296;48.084;16.352;2023-07-09T12:26:47;5.40;;;3.80;;
18340;SDS011;9296;48.084;16.352;2023-07-09T12:29:15;4.25;;;3.85;;
18340;SDS011;9296;48.084;16.352;2023-07-09T12:31:43;4.75;;;4.13;;
18340;SDS011;9296;48.084;16.352;2023-07-09T12:34:11;4.38;;;3.90;;
18340;SDS011;9296;48.084;16.352;2023-07-09T12:36:40;5.93;;;4.35;;
18340;SDS011;9296;48.084;16.352;2023-07-09T12:39:08;4.93;;;4.30;;
18340;SDS011;9296;48.084;16.352;2023-07-09T12:41:38;4.95;;;4.45;;
18340;SDS011;9296;48.084;16.352;2023-07-09T12:44:08;5.65;;;4.13;;
18340;SDS011;9296;48.084;16.352;2023-07-09T12:46:42;4.10;;;3.70;;
18340;SDS011;9296;48.084;16.352;2023-07-09T12:49:10;5.10;;;3.80;;
18340;SDS011;9296;48.084;16.352;2023-07-09T12:51:45;4.72;;;3.97;;
18340;SDS011;9296;48.084;16.352;2023-07-09T12:54:13;5.75;;;4.13;;
18340;SDS011;9296;48.084;16.352;2023-07-09T12:56:41;4.43;;;4.03;;
18340;SDS011;9296;48.084;16.352;2023-07-09T12:59:15;4.60;;;4.20;;
18340;SDS011;9296;48.084;16.352;2023-07-09T13:01:48;5.40;;;4.00;;
18340;SDS011;9296;48.084;16.352;2023-07-09T13:04:15;4.93;;;3.95;;
18340;SDS011;9296;48.084;16.352;2023-07-09T13:06:43;4.47;;;4.07;;
18340;SDS011;9296;48.084;16.352;2023-07-09T13:09:13;4.45;;;3.90;;
18340;SDS011;9296;48.084;16.352;2023-07-09T13:11:41;4.75;;;4.05;;
18340;SDS011;9296;48.084;16.352;2023-07-09T13:14:15;4.40;;;4.00;;
18340;SDS011;9296;48.084;16.352;2023-07-09T13:16:43;5.13;;;3.78;;
18340;SDS011;9296;48.084;16.352;2023-07-09T13:19:11;4.35;;;3.95;;
18340;SDS011;9296;48.084;16.352;2023-07-09T13:21:39;4.50;;;4.10;;
18340;SDS011;9296;48.084;16.352;2023-07-09T13:24:10;4.50;;;4.10;;
18340;SDS011;9296;48.084;16.352;2023-07-09T13:26:39;4.80;;;4.18;;
18340;SDS011;9296;48.084;16.352;2023-07-09T13:29:10;5.55;;;4.20;;
18340;SDS011;9296;48.084;16.352;2023-07-09T13:31:38;4.32;;;3.92;;
18340;SDS011;9296;48.084;16.352;2023-07-09T13:34:08;5.45;;;3.83;;
18340;SDS011;9296;48.084;16.352;2023-07-09T13:36:42;4.80;;;3.50;;
18340;SDS011;9296;48.084;16.352;2023-07-09T13:39:09;4.82;;;4.10;;
18340;SDS011;9296;48.084;16.352;2023-07-09T13:41:38;4.32;;;3.92;;
18340;SDS011;9296;48.084;16.352;2023-07-09T13:44:08;4.03;;;3.63;;
18340;SDS011;9296;48.084;16.352;2023-07-09T13:46:37;4.60;;;4.20;;
18340;SDS011;9296;48.084;16.352;2023-07-09T13:49:07;4.43;;;3.65;;
18340;SDS011;9296;48.084;16.352;2023-07-09T13:51:35;5.57;;;3.60;;
18340;SDS011;9296;48.084;16.352;2023-07-09T13:54:06;4.95;;;3.90;;
18340;SDS011;9296;48.084;16.352;2023-07-09T13:56:33;4.60;;;4.18;;
18340;SDS011;9296;48.084;16.352;2023-07-09T13:59:00;4.38;;;3.97;;
18340;SDS011;9296;48.084;16.352;2023-07-09T14:01:28;4.50;;;4.03;;
18340;SDS011;9296;48.084;16.352;2023-07-09T14:03:55;4.88;;;3.67;;
18340;SDS011;9296;48.084;16.352;2023-07-09T14:06:24;5.82;;;4.22;;
18340;SDS011;9296;48.084;16.352;2023-07-09T14:08:51;5.05;;;4.15;;
18340;SDS011;9296;48.084;16.352;2023-07-09T14:11:20;5.32;;;3.50;;
18340;SDS011;9296;48.084;16.352;2023-07-09T14:13:47;5.00;;;3.90;;
18340;SDS011;9296;48.084;16.352;2023-07-09T14:16:14;6.32;;;4.72;;
18340;SDS011;9296;48.084;16.352;2023-07-09T14:18:41;6.03;;;4.63;;
18340;SDS011;9296;48.084;16.352;2023-07-09T14:21:10;4.53;;;4.07;;
18340;SDS011;9296;48.084;16.352;2023-07-09T14:23:38;4.65;;;4.00;;
18340;SDS011;9296;48.084;16.352;2023-07-09T14:26:05;6.22;;;4.28;;
18340;SDS011;9296;48.084;16.352;2023-07-09T14:28:33;4.95;;;4.40;;
18340;SDS011;9296;48.084;16.352;2023-07-09T14:31:03;5.60;;;4.05;;
18340;SDS011;9296;48.084;16.352;2023-07-09T14:33:31;4.70;;;4.20;;
18340;SDS011;9296;48.084;16.352;2023-07-09T14:35:59;4.30;;;3.90;;
18340;SDS011;9296;48.084;16.352;2023-07-09T14:38:26;4.50;;;4.10;;
18340;SDS011;9296;48.084;16.352;2023-07-09T14:40:55;4.57;;;4.18;;
18340;SDS011;9296;48.084;16.352;2023-07-09T14:43:22;4.10;;;3.80;;
18340;SDS011;9296;48.084;16.352;2023-07-09T14:45:51;4.93;;;4.45;;
18340;SDS011;9296;48.084;16.352;2023-07-09T14:48:19;4.10;;;3.80;;
18340;SDS011;9296;48.084;16.352;2023-07-09T14:50:46;4.60;;;4.20;;
18340;SDS011;9296;48.084;16.352;2023-07-09T14:53:16;4.63;;;4.20;;
18340;SDS011;9296;48.084;16.352;2023-07-09T14:55:43;4.95;;;4.53;;
18340;SDS011;9296;48.084;16.352;2023-07-09T14:58:14;6.25;;;4.22;;
18340;SDS011;9296;48.084;16.352;2023-07-09T15:00:42;4.88;;;3.88;;
18340;SDS011;9296;48.084;16.352;2023-07-09T15:03:14;4.93;;;4.38;;
18340;SDS011;9296;48.084;16.352;2023-07-09T15:05:42;8.68;;;4.80;;
18340;SDS011;9296;48.084;16.352;2023-07-09T15:08:12;6.95;;;4.07;;
18340;SDS011;9296;48.084;16.352;2023-07-09T15:10:40;6.03;;;4.20;;
18340;SDS011;9296;48.084;16.352;2023-07-09T15:13:10;7.78;;;7.10;;
18340;SDS011;9296;48.084;16.352;2023-07-09T15:15:42;13.98;;;12.60;;
18340;SDS011;9296;48.084;16.352;2023-07-09T15:18:10;10.88;;;9.70;;
18340;SDS011;9296;48.084;16.352;2023-07-09T15:20:39;6.28;;;5.40;;
18340;SDS011;9296;48.084;16.352;2023-07-09T15:23:08;4.72;;;3.85;;
18340;SDS011;9296;48.084;16.352;2023-07-09T15:25:36;4.93;;;4.22;;
18340;SDS011;9296;48.084;16.352;2023-07-09T15:28:03;5.28;;;4.40;;
18340;SDS011;9296;48.084;16.352;2023-07-09T15:30:30;4.45;;;4.05;;
18340;SDS011;9296;48.084;16.352;2023-07-09T15:32:59;5.30;;;4.43;;
18340;SDS011;9296;48.084;16.352;2023-07-09T15:35:28;4.88;;;4.13;;
18340;SDS011;9296;48.084;16.352;2023-07-09T15:37:57;5.35;;;4.63;;
18340;SDS011;9296;48.084;16.352;2023-07-09T15:40:24;5.15;;;4.72;;
18340;SDS011;9296;48.084;16.352;2023-07-09T15:42:54;5.10;;;4.60;;
18340;SDS011;9296;48.084;16.352;2023-07-09T15:45:22;5.70;;;4.22;;
18340;SDS011;9296;48.084;16.352;2023-07-09T15:47:50;7.22;;;4.40;;
18340;SDS011;9296;48.084;16.352;2023-07-09T15:50:18;4.65;;;4.18;;
18340;SDS011;9296;48.084;16.352;2023-07-09T15:52:46;4.82;;;4.43;;
18340;SDS011;9296;48.084;16.352;2023-07-09T15:55:16;4.80;;;4.30;;
18340;SDS011;9296;48.084;16.352;2023-07-09T15:57:44;4.13;;;3.83;;
18340;SDS011;9296;48.084;16.352;2023-07-09T16:00:13;5.03;;;4.53;;
18340;SDS011;9296;48.084;16.352;2023-07-09T16:02:41;5.30;;;4.80;;
18340;SDS011;9296;48.084;16.352;2023-07-09T16:05:10;5.18;;;4.68;;
18340;SDS011;9296;48.084;16.352;2023-07-09T16:07:41;4.78;;;4.38;;
18340;SDS011;9296;48.084;16.352;2023-07-09T16:10:09;4.93;;;4.43;;
18340;SDS011;9296;48.084;16.352;2023-07-09T16:12:37;4.70;;;4.30;;
18340;SDS011;9296;48.084;16.352;2023-07-09T16:15:05;5.60;;;4.43;;
18340;SDS011;9296;48.084;16.352;2023-07-09T16:17:32;8.32;;;4.80;;
18340;SDS011;9296;48.084;16.352;2023-07-09T16:20:00;5.90;;;4.60;;
18340;SDS011;9296;48.084;16.352;2023-07-09T16:22:28;5.50;;;4.35;;
18340;SDS011;9296;48.084;16.352;2023-07-09T16:24:55;5.18;;;4.63;;
18340;SDS011;9296;48.084;16.352;2023-07-09T16:27:22;5.40;;;4.90;;
18340;SDS011;9296;48.084;16.352;2023-07-09T16:29:51;5.00;;;4.50;;
18340;SDS011;9296;48.084;16.352;2023-07-09T16:32:18;5.78;;;4.18;;
18340;SDS011;9296;48.084;16.352;2023-07-09T16:34:46;4.93;;;4.43;;
18340;SDS011;9296;48.084;16.352;2023-07-09T16:37:15;4.80;;;4.40;;
18340;SDS011;9296;48.084;16.352;2023-07-09T16:39:43;5.13;;;4.65;;